| time (UTC) | temp C | wind direction | speed KPH | gust KPH | rain 1hr cm | rain 24hr cm | rain mn cm | humidity % | barometer mb |
| 20260901063848 | 26 | 97 | 1.6 | 3.2 | 0.00 | 0.00 | 0.00 | 61 | 1017.5 |
| 20260901063348 | 26 | 119 | 1.6 | 3.2 | 0.00 | 0.00 | 0.00 | 61 | 1017.6 |
| 20260901062848 | 25 | 128 | 3.2 | 4.8 | 0.00 | 0.00 | 0.00 | 61 | 1017.6 |
| 20260901062348 | 25 | 76 | 1.6 | 3.2 | 0.00 | 0.00 | 0.00 | 63 | 1017.6 |
| 20260901061850 | 25 | 88 | 3.2 | 3.2 | 0.00 | 0.00 | 0.00 | 64 | 1017.6 |
| 20260901061349 | 25 | 67 | 1.6 | 1.6 | 0.00 | 0.00 | 0.00 | 65 | 1017.6 |
| 20260901060848 | 25 | 39 | 1.6 | 3.2 | 0.00 | 0.00 | 0.00 | 65 | 1017.5 |
| 20260901060349 | 26 | 53 | 1.6 | 3.2 | 0.00 | 0.00 | 0.00 | 64 | 1017.4 |
| 20260901055851 | 26 | 33 | 1.6 | 1.6 | 0.00 | 0.00 | 0.00 | 64 | 1017.5 |
| 20260901055348 | 27 | 35 | 1.6 | 3.2 | 0.00 | 0.00 | 0.00 | 62 | 1017.4 |
| 20260901054848 | 27 | 130 | 0.0 | 1.6 | 0.00 | 0.00 | 0.00 | 58 | 1017.4 |
| 20260901054348 | 27 | 116 | 4.8 | 6.4 | 0.00 | 0.00 | 0.00 | 58 | 1017.3 |
| 20260901053853 | 27 | 123 | 1.6 | 3.2 | 0.00 | 0.00 | 0.00 | 59 | 1017.4 |
| 20260901053351 | 27 | 88 | 1.6 | 3.2 | 0.00 | 0.00 | 0.00 | 58 | 1017.4 |
| 20260901052848 | 27 | 112 | 3.2 | 6.4 | 0.00 | 0.00 | 0.00 | 58 | 1017.4 |
| 20260901052348 | 27 | 58 | 1.6 | 1.6 | 0.00 | 0.00 | 0.00 | 58 | 1017.3 |
| 20260901051848 | 27 | 94 | 3.2 | 3.2 | 0.00 | 0.00 | 0.00 | 57 | 1017.2 |
| 20260901051348 | 27 | 94 | 1.6 | 3.2 | 0.00 | 0.00 | 0.00 | 57 | 1017.2 |
| 20260901050849 | 28 | 86 | 1.6 | 3.2 | 0.00 | 0.00 | 0.00 | 56 | 1017.2 |
| 20260901050349 | 28 | 360 | 0.0 | 0.0 | 0.00 | 0.00 | 0.00 | 56 | 1017.2 |
| 20260901045849 | 28 | 146 | 0.0 | 3.2 | 0.00 | 0.00 | 0.00 | 55 | 1017.2 |
| 20260901045348 | 28 | 113 | 0.0 | 3.2 | 0.00 | 0.00 | 0.00 | 54 | 1017.2 |
| 20260901044848 | 28 | 123 | 3.2 | 6.4 | 0.00 | 0.00 | 0.00 | 54 | 1017.2 |
| 20260901044348 | 28 | 130 | 3.2 | 6.4 | 0.00 | 0.00 | 0.00 | 54 | 1017.2 |
| 20260901043848 | 28 | 115 | 3.2 | 8.0 | 0.00 | 0.00 | 0.00 | 54 | 1017.2 |
| 20260901043348 | 28 | 100 | 3.2 | 6.4 | 0.00 | 0.00 | 0.00 | 53 | 1017.2 |
| 20260901042848 | 28 | 149 | 1.6 | 3.2 | 0.00 | 0.00 | 0.00 | 53 | 1017.2 |
| 20260901042348 | 29 | 136 | 1.6 | 4.8 | 0.00 | 0.00 | 0.00 | 53 | 1017.1 |
| 20260901041848 | 29 | 145 | 4.8 | 8.0 | 0.00 | 0.00 | 0.00 | 52 | 1017.1 |
| 20260901041348 | 29 | 126 | 3.2 | 4.8 | 0.00 | 0.00 | 0.00 | 52 | 1017.2 |
| 20260901040848 | 29 | 141 | 1.6 | 3.2 | 0.00 | 0.00 | 0.00 | 52 | 1017.1 |
| 20260901040348 | 29 | 150 | 3.2 | 6.4 | 0.00 | 0.00 | 0.00 | 51 | 1017.1 |
| 20260901035848 | 29 | 137 | 3.2 | 4.8 | 0.00 | 0.00 | 0.00 | 51 | 1017.1 |
| 20260901035348 | 29 | 145 | 4.8 | 9.7 | 0.00 | 0.00 | 0.00 | 51 | 1017.1 |
| 20260901034848 | 29 | 148 | 6.4 | 9.7 | 0.00 | 0.00 | 0.00 | 51 | 1017.1 |
| 20260901034348 | 29 | 155 | 3.2 | 6.4 | 0.00 | 0.00 | 0.00 | 51 | 1017.1 |
| 20260901033849 | 29 | 139 | 4.8 | 9.7 | 0.00 | 0.00 | 0.00 | 51 | 1017.1 |
| 20260901032905 | 29 | 133 | 6.4 | 9.7 | 0.00 | 0.00 | 0.00 | 51 | 1017.0 |
| 20260901032349 | 29 | 136 | 6.4 | 11.3 | 0.00 | 0.00 | 0.00 | 52 | 1017.0 |
| 20260901031848 | 29 | 134 | 4.8 | 8.0 | 0.00 | 0.00 | 0.00 | 53 | 1017.0 |
| 20260901031348 | 29 | 92 | 3.2 | 4.8 | 0.00 | 0.00 | 0.00 | 53 | 1017.0 |
| 20260901030848 | 29 | 96 | 3.2 | 4.8 | 0.00 | 0.00 | 0.00 | 53 | 1017.0 |
| 20260901030348 | 29 | 82 | 3.2 | 3.2 | 0.00 | 0.00 | 0.00 | 53 | 1017.0 |
| 20260901025848 | 29 | 93 | 3.2 | 6.4 | 0.00 | 0.00 | 0.00 | 53 | 1017.0 |
| 20260901025348 | 29 | 84 | 3.2 | 4.8 | 0.00 | 0.00 | 0.00 | 53 | 1016.9 |
| 20260901024848 | 29 | 92 | 3.2 | 6.4 | 0.00 | 0.00 | 0.00 | 53 | 1016.9 |
| 20260901024348 | 29 | 91 | 3.2 | 6.4 | 0.00 | 0.00 | 0.00 | 53 | 1016.8 |
| 20260901023848 | 29 | 98 | 3.2 | 4.8 | 0.00 | 0.00 | 0.00 | 53 | 1016.8 |
| 20260901023348 | 29 | 85 | 3.2 | 4.8 | 0.00 | 0.00 | 0.00 | 54 | 1016.7 |
| 20260901022848 | 29 | 89 | 3.2 | 4.8 | 0.00 | 0.00 | 0.00 | 53 | 1016.7 |
| 20260901022349 | 29 | 84 | 3.2 | 3.2 | 0.00 | 0.00 | 0.00 | 53 | 1016.5 |
| 20260901021848 | 29 | 102 | 3.2 | 6.4 | 0.00 | 0.00 | 0.00 | 53 | 1016.5 |
| 20260901021348 | 29 | 88 | 3.2 | 4.8 | 0.00 | 0.00 | 0.00 | 53 | 1016.4 |
| 20260901020848 | 30 | 74 | 1.6 | 3.2 | 0.00 | 0.00 | 0.00 | 53 | 1016.3 |
| 20260901020350 | 30 | 81 | 1.6 | 3.2 | 0.00 | 0.00 | 0.00 | 52 | 1016.3 |
| 20260901015849 | 30 | 102 | 1.6 | 4.8 | 0.00 | 0.00 | 0.00 | 51 | 1016.2 |
| 20260901015349 | 30 | 92 | 4.8 | 6.4 | 0.00 | 0.00 | 0.00 | 51 | 1016.1 |
| 20260901014849 | 30 | 79 | 1.6 | 3.2 | 0.00 | 0.00 | 0.00 | 51 | 1016.1 |
| 20260901014349 | 30 | 89 | 3.2 | 3.2 | 0.00 | 0.00 | 0.00 | 50 | 1016.0 |
| 20260901013848 | 30 | 67 | 3.2 | 4.8 | 0.00 | 0.00 | 0.00 | 50 | 1015.9 |
| 20260901013348 | 30 | 68 | 3.2 | 4.8 | 0.00 | 0.00 | 0.00 | 49 | 1015.9 |
| 20260901012848 | 31 | 86 | 1.6 | 3.2 | 0.00 | 0.00 | 0.00 | 49 | 1015.9 |
| 20260901012349 | 31 | 73 | 3.2 | 4.8 | 0.00 | 0.00 | 0.00 | 48 | 1015.8 |
| 20260901011848 | 31 | 97 | 1.6 | 3.2 | 0.00 | 0.00 | 0.00 | 47 | 1015.8 |
| 20260901011348 | 31 | 99 | 1.6 | 3.2 | 0.00 | 0.00 | 0.00 | 47 | 1015.7 |
| 20260901010848 | 31 | 75 | 3.2 | 4.8 | 0.00 | 0.00 | 0.00 | 48 | 1015.7 |
| 20260901010350 | 31 | 76 | 3.2 | 3.2 | 0.00 | 0.00 | 0.00 | 47 | 1015.7 |
| 20260901005848 | 31 | 59 | 3.2 | 3.2 | 0.00 | 0.00 | 0.00 | 46 | 1015.7 |
| 20260901005348 | 32 | 107 | 4.8 | 9.7 | 0.00 | 0.00 | 0.00 | 46 | 1015.6 |
| 20260901004850 | 32 | 81 | 3.2 | 3.2 | 0.00 | 0.00 | 0.00 | 45 | 1015.6 |
| 20260901004349 | 32 | 37 | 1.6 | 3.2 | 0.00 | 0.00 | 0.00 | 45 | 1015.5 |
| 20260901003849 | 32 | 92 | 1.6 | 3.2 | 0.00 | 0.00 | 0.00 | 45 | 1015.5 |
| 20260901003349 | 32 | 79 | 3.2 | 3.2 | 0.00 | 0.00 | 0.00 | 44 | 1015.5 |
| 20260901002849 | 33 | 78 | 1.6 | 3.2 | 0.00 | 0.00 | 0.00 | 43 | 1015.5 |
| 20260901002349 | 33 | 69 | 3.2 | 4.8 | 0.00 | 0.00 | 0.00 | 42 | 1015.4 |
| 20260901001849 | 34 | 121 | 3.2 | 4.8 | 0.00 | 0.00 | 0.00 | 41 | 1015.4 |
| 20260901001348 | 34 | 92 | 4.8 | 6.4 | 0.00 | 0.00 | 0.00 | 40 | 1015.4 |
| 20260901000848 | 35 | 105 | 6.4 | 8.0 | 0.00 | 0.00 | 0.00 | 38 | 1015.4 |
| 20260901000350 | 35 | 134 | 6.4 | 9.7 | 0.00 | 0.00 | 0.00 | 37 | 1015.4 |
| 20260831235848 | 35 | 123 | 4.8 | 8.0 | 0.00 | 0.00 | 0.00 | 36 | 1015.4 |
| 20260831235348 | 36 | 122 | 3.2 | 3.2 | 0.00 | 0.00 | 0.00 | 35 | 1015.4 |
| 20260831234848 | 36 | 117 | 3.2 | 4.8 | 0.00 | 0.00 | 0.00 | 34 | 1015.4 |
| 20260831234348 | 36 | 112 | 3.2 | 4.8 | 0.00 | 0.00 | 0.00 | 34 | 1015.4 |
| 20260831233848 | 36 | 151 | 3.2 | 4.8 | 0.00 | 0.00 | 0.00 | 32 | 1015.3 |
| 20260831233349 | 36 | 153 | 3.2 | 4.8 | 0.00 | 0.00 | 0.00 | 33 | 1015.3 |
| 20260831232848 | 36 | 199 | 3.2 | 6.4 | 0.00 | 0.00 | 0.00 | 32 | 1015.3 |
| 20260831232349 | 37 | 180 | 3.2 | 4.8 | 0.00 | 0.00 | 0.00 | 31 | 1015.3 |
| 20260831231849 | 37 | 159 | 4.8 | 8.0 | 0.00 | 0.00 | 0.00 | 31 | 1015.3 |
| 20260831231348 | 36 | 163 | 4.8 | 6.4 | 0.00 | 0.00 | 0.00 | 31 | 1015.3 |
| 20260831230848 | 37 | 161 | 6.4 | 9.7 | 0.00 | 0.00 | 0.00 | 31 | 1015.4 |
| 20260831230349 | 37 | 155 | 6.4 | 11.3 | 0.00 | 0.00 | 0.00 | 31 | 1015.4 |
| 20260831225849 | 37 | 173 | 6.4 | 9.7 | 0.00 | 0.00 | 0.00 | 30 | 1015.4 |
| 20260831225350 | 37 | 182 | 3.2 | 4.8 | 0.00 | 0.00 | 0.00 | 31 | 1015.4 |
| 20260831224848 | 37 | 241 | 3.2 | 6.4 | 0.00 | 0.00 | 0.00 | 30 | 1015.4 |
| 20260831224348 | 37 | 217 | 3.2 | 3.2 | 0.00 | 0.00 | 0.00 | 30 | 1015.4 |
| 20260831223848 | 37 | 225 | 4.8 | 9.7 | 0.00 | 0.00 | 0.00 | 31 | 1015.4 |
| 20260831223348 | 37 | 194 | 6.4 | 9.7 | 0.00 | 0.00 | 0.00 | 31 | 1015.4 |
| 20260831222848 | 37 | 218 | 6.4 | 9.7 | 0.00 | 0.00 | 0.00 | 30 | 1015.5 |
| 20260831222348 | 37 | 337 | 1.6 | 1.6 | 0.00 | 0.00 | 0.00 | 30 | 1015.5 |
| 20260831221848 | 37 | 187 | 4.8 | 9.7 | 0.00 | 0.00 | 0.00 | 31 | 1015.5 |
| 20260831221348 | 37 | 236 | 6.4 | 8.0 | 0.00 | 0.00 | 0.00 | 31 | 1015.5 |
| 20260831220849 | 37 | 210 | 4.8 | 9.7 | 0.00 | 0.00 | 0.00 | 30 | 1015.6 |
| 20260831220348 | 37 | 213 | 8.0 | 12.9 | 0.00 | 0.00 | 0.00 | 31 | 1015.5 |
| 20260831215849 | 37 | 149 | 4.8 | 6.4 | 0.00 | 0.00 | 0.00 | 30 | 1015.6 |
| 20260831215350 | 37 | 124 | 3.2 | 6.4 | 0.00 | 0.00 | 0.00 | 30 | 1015.6 |
| 20260831214848 | 37 | 269 | 4.8 | 9.7 | 0.00 | 0.00 | 0.00 | 30 | 1015.6 |
| 20260831214349 | 37 | 129 | 6.4 | 11.3 | 0.00 | 0.00 | 0.00 | 30 | 1015.6 |
| 20260831213848 | 36 | 39 | 4.8 | 8.0 | 0.00 | 0.00 | 0.00 | 31 | 1015.6 |
| 20260831213348 | 36 | 192 | 4.8 | 8.0 | 0.00 | 0.00 | 0.00 | 31 | 1015.6 |
| 20260831212850 | 37 | 183 | 1.6 | 3.2 | 0.00 | 0.00 | 0.00 | 30 | 1015.6 |
| 20260831212348 | 37 | 163 | 6.4 | 11.3 | 0.00 | 0.00 | 0.00 | 30 | 1015.7 |
| 20260831211848 | 37 | 276 | 4.8 | 8.0 | 0.00 | 0.00 | 0.00 | 30 | 1015.6 |
| 20260831211350 | 37 | 204 | 9.7 | 14.5 | 0.00 | 0.00 | 0.00 | 30 | 1015.8 |
| 20260831210848 | 37 | 206 | 6.4 | 8.0 | 0.00 | 0.00 | 0.00 | 30 | 1015.7 |
| 20260831210349 | 37 | 293 | 4.8 | 9.7 | 0.00 | 0.00 | 0.00 | 30 | 1015.7 |
| 20260831205848 | 37 | 170 | 6.4 | 9.7 | 0.00 | 0.00 | 0.00 | 30 | 1015.8 |
| 20260831205348 | 37 | 154 | 9.7 | 14.5 | 0.00 | 0.00 | 0.00 | 30 | 1015.9 |
| 20260831204848 | 37 | 219 | 6.4 | 9.7 | 0.00 | 0.00 | 0.00 | 30 | 1015.9 |
| 20260831204349 | 37 | 206 | 4.8 | 9.7 | 0.00 | 0.00 | 0.00 | 31 | 1016.0 |
| 20260831203849 | 37 | 198 | 8.0 | 9.7 | 0.00 | 0.00 | 0.00 | 30 | 1016.1 |
| 20260831203349 | 37 | 195 | 9.7 | 14.5 | 0.00 | 0.00 | 0.00 | 31 | 1016.1 |
| 20260831202848 | 37 | 165 | 8.0 | 11.3 | 0.00 | 0.00 | 0.00 | 30 | 1016.2 |
| 20260831202348 | 36 | 149 | 4.8 | 8.0 | 0.00 | 0.00 | 0.00 | 31 | 1016.2 |
| 20260831201850 | 36 | 139 | 6.4 | 8.0 | 0.00 | 0.00 | 0.00 | 32 | 1016.3 |
| 20260831201349 | 37 | 137 | 6.4 | 8.0 | 0.00 | 0.00 | 0.00 | 31 | 1016.3 |
| 20260831200849 | 37 | 139 | 6.4 | 11.3 | 0.00 | 0.00 | 0.00 | 31 | 1016.4 |
| 20260831200348 | 37 | 188 | 8.0 | 11.3 | 0.00 | 0.00 | 0.00 | 30 | 1016.5 |
| 20260831195848 | 37 | 216 | 11.3 | 17.7 | 0.00 | 0.00 | 0.00 | 30 | 1016.5 |
| 20260831195348 | 37 | 229 | 3.2 | 8.0 | 0.00 | 0.00 | 0.00 | 32 | 1016.4 |
| 20260831194849 | 37 | 236 | 6.4 | 11.3 | 0.00 | 0.00 | 0.00 | 31 | 1016.5 |
| 20260831194349 | 37 | 206 | 8.0 | 12.9 | 0.00 | 0.00 | 0.00 | 31 | 1016.7 |
| 20260831193848 | 37 | 141 | 6.4 | 9.7 | 0.00 | 0.00 | 0.00 | 31 | 1016.7 |
| 20260831193351 | 37 | 211 | 4.8 | 11.3 | 0.00 | 0.00 | 0.00 | 30 | 1016.7 |
| 20260831192849 | 36 | 173 | 6.4 | 12.9 | 0.00 | 0.00 | 0.00 | 32 | 1016.7 |
| 20260831192348 | 36 | 151 | 1.6 | 3.2 | 0.00 | 0.00 | 0.00 | 33 | 1016.8 |
| 20260831191851 | 36 | 202 | 3.2 | 4.8 | 0.00 | 0.00 | 0.00 | 33 | 1016.9 |
| 20260831191348 | 37 | 239 | 4.8 | 9.7 | 0.00 | 0.00 | 0.00 | 32 | 1017.0 |
| 20260831190848 | 36 | 264 | 4.8 | 8.0 | 0.00 | 0.00 | 0.00 | 33 | 1017.0 |
| 20260831190348 | 36 | 294 | 9.7 | 17.7 | 0.00 | 0.00 | 0.00 | 33 | 1017.1 |
| 20260831185848 | 36 | 238 | 4.8 | 9.7 | 0.00 | 0.00 | 0.00 | 33 | 1017.1 |
| 20260831185349 | 36 | 205 | 9.7 | 12.9 | 0.00 | 0.00 | 0.00 | 33 | 1017.1 |
| 20260831184848 | 36 | 302 | 9.7 | 14.5 | 0.00 | 0.00 | 0.00 | 33 | 1017.1 |
| 20260831184351 | 36 | 291 | 6.4 | 8.0 | 0.00 | 0.00 | 0.00 | 33 | 1017.2 |
| 20260831183849 | 36 | 301 | 6.4 | 11.3 | 0.00 | 0.00 | 0.00 | 33 | 1017.2 |
| 20260831183348 | 36 | 296 | 6.4 | 9.7 | 0.00 | 0.00 | 0.00 | 33 | 1017.3 |
| 20260831182848 | 36 | 295 | 3.2 | 4.8 | 0.00 | 0.00 | 0.00 | 33 | 1017.4 |
| 20260831182349 | 36 | 268 | 4.8 | 9.7 | 0.00 | 0.00 | 0.00 | 34 | 1017.4 |
| 20260831181848 | 36 | 224 | 6.4 | 14.5 | 0.00 | 0.00 | 0.00 | 33 | 1017.4 |
| 20260831181348 | 36 | 227 | 3.2 | 6.4 | 0.00 | 0.00 | 0.00 | 33 | 1017.5 |
| 20260831180849 | 36 | 281 | 8.0 | 9.7 | 0.00 | 0.00 | 0.00 | 33 | 1017.6 |
| 20260831180349 | 36 | 220 | 6.4 | 16.1 | 0.00 | 0.00 | 0.00 | 33 | 1017.6 |
| 20260831175848 | 36 | 286 | 8.0 | 14.5 | 0.00 | 0.00 | 0.00 | 32 | 1017.7 |
| 20260831175348 | 36 | 269 | 6.4 | 14.5 | 0.00 | 0.00 | 0.00 | 34 | 1017.7 |
| 20260831174851 | 36 | 205 | 6.4 | 11.3 | 0.00 | 0.00 | 0.00 | 35 | 1017.7 |
| 20260831174348 | 35 | 290 | 4.8 | 6.4 | 0.00 | 0.00 | 0.00 | 35 | 1017.8 |
| 20260831173848 | 35 | 281 | 9.7 | 12.9 | 0.00 | 0.00 | 0.00 | 35 | 1017.8 |
| 20260831173349 | 35 | 293 | 9.7 | 16.1 | 0.00 | 0.00 | 0.00 | 35 | 1017.9 |
| 20260831172849 | 35 | 239 | 4.8 | 6.4 | 0.00 | 0.00 | 0.00 | 36 | 1017.9 |
| 20260831172348 | 36 | 276 | 3.2 | 8.0 | 0.00 | 0.00 | 0.00 | 35 | 1018.0 |
| 20260831171848 | 36 | 226 | 8.0 | 12.9 | 0.00 | 0.00 | 0.00 | 35 | 1018.1 |
| 20260831171348 | 36 | 253 | 8.0 | 12.9 | 0.00 | 0.00 | 0.00 | 35 | 1018.1 |
| 20260831170848 | 35 | 258 | 8.0 | 12.9 | 0.00 | 0.00 | 0.00 | 36 | 1018.1 |
| 20260831170349 | 35 | 306 | 8.0 | 9.7 | 0.00 | 0.00 | 0.00 | 37 | 1018.2 |
| 20260831165848 | 35 | 276 | 4.8 | 8.0 | 0.00 | 0.00 | 0.00 | 38 | 1018.3 |
| 20260831165348 | 35 | 275 | 3.2 | 6.4 | 0.00 | 0.00 | 0.00 | 38 | 1018.3 |
| 20260831164850 | 35 | 211 | 11.3 | 19.3 | 0.00 | 0.00 | 0.00 | 39 | 1018.3 |
| 20260831164349 | 35 | 200 | 4.8 | 9.7 | 0.00 | 0.00 | 0.00 | 40 | 1018.3 |
| 20260831163848 | 34 | 273 | 8.0 | 12.9 | 0.00 | 0.00 | 0.00 | 41 | 1018.5 |
| 20260831163349 | 34 | 237 | 6.4 | 8.0 | 0.00 | 0.00 | 0.00 | 42 | 1018.5 |
| 20260831162848 | 34 | 245 | 6.4 | 9.7 | 0.00 | 0.00 | 0.00 | 44 | 1018.5 |
| 20260831162348 | 34 | 206 | 9.7 | 14.5 | 0.00 | 0.00 | 0.00 | 44 | 1018.4 |
| 20260831161848 | 33 | 250 | 6.4 | 9.7 | 0.00 | 0.00 | 0.00 | 44 | 1018.5 |
| 20260831161348 | 33 | 313 | 9.7 | 11.3 | 0.00 | 0.00 | 0.00 | 45 | 1018.4 |
| 20260831160848 | 33 | 285 | 11.3 | 16.1 | 0.00 | 0.00 | 0.00 | 45 | 1018.5 |
| 20260831160349 | 33 | 207 | 4.8 | 8.0 | 0.00 | 0.00 | 0.00 | 47 | 1018.5 |
| 20260831155848 | 32 | 216 | 8.0 | 12.9 | 0.00 | 0.00 | 0.00 | 47 | 1018.6 |
| 20260831155349 | 32 | 197 | 4.8 | 11.3 | 0.00 | 0.00 | 0.00 | 48 | 1018.6 |
| 20260831154848 | 32 | 223 | 6.4 | 11.3 | 0.00 | 0.00 | 0.00 | 48 | 1018.6 |
| 20260831154349 | 32 | 224 | 9.7 | 12.9 | 0.00 | 0.00 | 0.00 | 48 | 1018.6 |
| 20260831153848 | 32 | 210 | 6.4 | 8.0 | 0.00 | 0.00 | 0.00 | 50 | 1018.6 |
| 20260831153348 | 31 | 247 | 4.8 | 8.0 | 0.00 | 0.00 | 0.00 | 50 | 1018.6 |
| 20260831152848 | 31 | 234 | 4.8 | 9.7 | 0.00 | 0.00 | 0.00 | 50 | 1018.6 |
| 20260831152349 | 31 | 228 | 3.2 | 8.0 | 0.00 | 0.00 | 0.00 | 50 | 1018.6 |
| 20260831151848 | 31 | 184 | 8.0 | 12.9 | 0.00 | 0.00 | 0.00 | 51 | 1018.6 |
| 20260831151348 | 31 | 199 | 6.4 | 9.7 | 0.00 | 0.00 | 0.00 | 52 | 1018.6 |
| 20260831150848 | 30 | 288 | 6.4 | 9.7 | 0.00 | 0.00 | 0.00 | 52 | 1018.6 |
| 20260831150348 | 30 | 212 | 3.2 | 9.7 | 0.00 | 0.00 | 0.00 | 52 | 1018.5 |
| 20260831145848 | 30 | 241 | 6.4 | 11.3 | 0.00 | 0.00 | 0.00 | 53 | 1018.5 |
| 20260831145348 | 30 | 234 | 8.0 | 11.3 | 0.00 | 0.00 | 0.00 | 52 | 1018.5 |
| 20260831144848 | 30 | 211 | 8.0 | 12.9 | 0.00 | 0.00 | 0.00 | 53 | 1018.5 |
| 20260831144349 | 30 | 237 | 8.0 | 11.3 | 0.00 | 0.00 | 0.00 | 54 | 1018.5 |
| 20260831143849 | 30 | 206 | 6.4 | 9.7 | 0.00 | 0.00 | 0.00 | 53 | 1018.5 |
| 20260831143349 | 30 | 265 | 3.2 | 6.4 | 0.00 | 0.00 | 0.00 | 54 | 1018.5 |
| 20260831142848 | 29 | 243 | 8.0 | 12.9 | 0.00 | 0.00 | 0.00 | 54 | 1018.5 |
| 20260831142348 | 29 | 213 | 6.4 | 9.7 | 0.00 | 0.00 | 0.00 | 54 | 1018.5 |
| 20260831141849 | 28 | 227 | 6.4 | 9.7 | 0.00 | 0.00 | 0.00 | 56 | 1018.5 |
| 20260831141350 | 28 | 213 | 9.7 | 16.1 | 0.00 | 0.00 | 0.00 | 55 | 1018.4 |
| 20260831140848 | 28 | 195 | 11.3 | 17.7 | 0.00 | 0.00 | 0.00 | 56 | 1018.4 |
| 20260831140349 | 28 | 202 | 9.7 | 14.5 | 0.00 | 0.00 | 0.00 | 57 | 1018.4 |
| 20260831135848 | 28 | 195 | 9.7 | 14.5 | 0.00 | 0.00 | 0.00 | 57 | 1018.4 |
| 20260831135348 | 28 | 203 | 9.7 | 16.1 | 0.00 | 0.00 | 0.00 | 57 | 1018.4 |
| 20260831134848 | 27 | 223 | 8.0 | 12.9 | 0.00 | 0.00 | 0.00 | 58 | 1018.4 |
| 20260831134348 | 27 | 224 | 9.7 | 14.5 | 0.00 | 0.00 | 0.00 | 58 | 1018.3 |
| 20260831133848 | 27 | 220 | 9.7 | 14.5 | 0.00 | 0.00 | 0.00 | 59 | 1018.3 |
| 20260831133348 | 27 | 173 | 6.4 | 9.7 | 0.00 | 0.00 | 0.00 | 59 | 1018.3 |
| 20260831132849 | 26 | 189 | 3.2 | 4.8 | 0.00 | 0.00 | 0.00 | 60 | 1018.3 |
| 20260831132351 | 26 | 173 | 6.4 | 8.0 | 0.00 | 0.00 | 0.00 | 60 | 1018.3 |
| 20260831131848 | 26 | 172 | 4.8 | 8.0 | 0.00 | 0.00 | 0.00 | 61 | 1018.2 |
| 20260831131348 | 26 | 175 | 4.8 | 6.4 | 0.00 | 0.00 | 0.00 | 62 | 1018.2 |
| 20260831130849 | 25 | 127 | 1.6 | 4.8 | 0.00 | 0.00 | 0.00 | 62 | 1018.2 |
| 20260831130348 | 25 | 203 | 4.8 | 8.0 | 0.00 | 0.00 | 0.00 | 63 | 1018.2 |
| 20260831125849 | 25 | 179 | 3.2 | 6.4 | 0.00 | 0.00 | 0.00 | 63 | 1018.1 |
| 20260831125348 | 25 | 210 | 3.2 | 4.8 | 0.00 | 0.00 | 0.00 | 64 | 1018.1 |
| 20260831124848 | 24 | 184 | 3.2 | 4.8 | 0.00 | 0.00 | 0.00 | 65 | 1018.0 |
| 20260831124348 | 24 | 230 | 1.6 | 4.8 | 0.00 | 0.00 | 0.00 | 65 | 1018.0 |
| 20260831123849 | 23 | 208 | 1.6 | 6.4 | 0.00 | 0.00 | 0.00 | 66 | 1017.9 |
| 20260831123348 | 23 | 183 | 1.6 | 3.2 | 0.00 | 0.00 | 0.00 | 67 | 1017.7 |
| 20260831122849 | 23 | 94 | 1.6 | 1.6 | 0.00 | 0.00 | 0.00 | 67 | 1017.7 |
| 20260831122348 | 23 | 129 | 3.2 | 3.2 | 0.00 | 0.00 | 0.00 | 68 | 1017.7 |
| 20260831121850 | 23 | 145 | 3.2 | 4.8 | 0.00 | 0.00 | 0.00 | 67 | 1017.7 |
| 20260831121348 | 23 | 360 | 0.0 | 0.0 | 0.00 | 0.00 | 0.00 | 68 | 1017.6 |
| 20260831120849 | 23 | 134 | 1.6 | 3.2 | 0.00 | 0.00 | 0.00 | 68 | 1017.6 |
| 20260831120349 | 23 | 280 | 0.0 | 0.0 | 0.00 | 0.00 | 0.00 | 69 | 1017.5 |
| 20260831115848 | 22 | 100 | 3.2 | 3.2 | 0.00 | 0.00 | 0.00 | 69 | 1017.4 |
| 20260831115349 | 22 | 130 | 4.8 | 6.4 | 0.00 | 0.00 | 0.00 | 70 | 1017.3 |
| 20260831114849 | 22 | 147 | 1.6 | 3.2 | 0.00 | 0.00 | 0.00 | 70 | 1017.2 |
| 20260831114351 | 22 | 89 | 1.6 | 3.2 | 0.00 | 0.00 | 0.00 | 70 | 1017.2 |
| 20260831113848 | 22 | 75 | 1.6 | 1.6 | 0.00 | 0.00 | 0.00 | 71 | 1017.1 |
| 20260831113348 | 22 | 98 | 0.0 | 0.0 | 0.00 | 0.00 | 0.00 | 70 | 1017.0 |
| 20260831112849 | 23 | 239 | 0.0 | 0.0 | 0.00 | 0.00 | 0.00 | 69 | 1017.0 |
| 20260831112348 | 23 | 61 | 3.2 | 3.2 | 0.00 | 0.00 | 0.00 | 68 | 1016.9 |
| 20260831111848 | 23 | 195 | 1.6 | 3.2 | 0.00 | 0.00 | 0.00 | 68 | 1017.0 |
| 20260831111348 | 23 | 100 | 3.2 | 3.2 | 0.00 | 0.00 | 0.00 | 68 | 1016.9 |
| 20260831110848 | 23 | 124 | 1.6 | 3.2 | 0.00 | 0.00 | 0.00 | 68 | 1016.9 |
| 20260831110348 | 23 | 91 | 1.6 | 3.2 | 0.00 | 0.00 | 0.00 | 67 | 1016.9 |
| 20260831105848 | 23 | 98 | 3.2 | 3.2 | 0.00 | 0.00 | 0.00 | 67 | 1016.9 |
| 20260831105348 | 23 | 119 | 3.2 | 3.2 | 0.00 | 0.00 | 0.00 | 67 | 1016.8 |
| 20260831104849 | 23 | 124 | 3.2 | 4.8 | 0.00 | 0.00 | 0.00 | 67 | 1016.8 |
| 20260831104348 | 23 | 105 | 3.2 | 3.2 | 0.00 | 0.00 | 0.00 | 67 | 1016.7 |
| 20260831103849 | 23 | 104 | 3.2 | 4.8 | 0.00 | 0.00 | 0.00 | 67 | 1016.7 |
| 20260831103349 | 23 | 121 | 3.2 | 4.8 | 0.00 | 0.00 | 0.00 | 67 | 1016.7 |
| 20260831102849 | 23 | 128 | 3.2 | 3.2 | 0.00 | 0.00 | 0.00 | 66 | 1016.7 |
| 20260831102348 | 23 | 122 | 4.8 | 6.4 | 0.00 | 0.00 | 0.00 | 67 | 1016.7 |
| 20260831101848 | 23 | 143 | 3.2 | 3.2 | 0.00 | 0.00 | 0.00 | 66 | 1016.7 |
| 20260831101349 | 23 | 150 | 4.8 | 6.4 | 0.00 | 0.00 | 0.00 | 66 | 1016.7 |
| 20260831100848 | 23 | 145 | 1.6 | 3.2 | 0.00 | 0.00 | 0.00 | 66 | 1016.7 |
| 20260831100348 | 23 | 118 | 3.2 | 4.8 | 0.00 | 0.00 | 0.00 | 66 | 1016.5 |
| 20260831095848 | 23 | 133 | 1.6 | 3.2 | 0.00 | 0.00 | 0.00 | 66 | 1016.5 |
| 20260831095348 | 23 | 114 | 1.6 | 3.2 | 0.00 | 0.00 | 0.00 | 66 | 1016.7 |
| 20260831094848 | 23 | 119 | 4.8 | 6.4 | 0.00 | 0.00 | 0.00 | 66 | 1016.5 |
| 20260831094348 | 23 | 118 | 3.2 | 3.2 | 0.00 | 0.00 | 0.00 | 66 | 1016.7 |
| 20260831093849 | 23 | 130 | 3.2 | 4.8 | 0.00 | 0.00 | 0.00 | 66 | 1016.7 |
| 20260831093349 | 23 | 127 | 4.8 | 4.8 | 0.00 | 0.00 | 0.00 | 66 | 1016.5 |
| 20260831092849 | 23 | 128 | 3.2 | 4.8 | 0.00 | 0.00 | 0.00 | 66 | 1016.7 |
| 20260831092348 | 23 | 138 | 3.2 | 4.8 | 0.00 | 0.00 | 0.00 | 66 | 1016.7 |
| 20260831091853 | 23 | 121 | 1.6 | 3.2 | 0.00 | 0.00 | 0.00 | 66 | 1016.7 |
| 20260831091348 | 23 | 182 | 3.2 | 4.8 | 0.00 | 0.00 | 0.00 | 67 | 1016.5 |
| 20260831090849 | 23 | 109 | 1.6 | 3.2 | 0.00 | 0.00 | 0.00 | 66 | 1016.5 |
| 20260831090348 | 23 | 126 | 3.2 | 4.8 | 0.00 | 0.00 | 0.00 | 66 | 1016.5 |
| 20260831085848 | 23 | 121 | 3.2 | 4.8 | 0.00 | 0.00 | 0.00 | 66 | 1016.5 |
| 20260831085348 | 23 | 108 | 1.6 | 3.2 | 0.00 | 0.00 | 0.00 | 67 | 1016.5 |
| 20260831084848 | 23 | 87 | 3.2 | 3.2 | 0.00 | 0.00 | 0.00 | 66 | 1016.5 |
| 20260831084350 | 23 | 87 | 0.0 | 1.6 | 0.00 | 0.00 | 0.00 | 66 | 1016.5 |
| 20260831083849 | 23 | 101 | 3.2 | 3.2 | 0.00 | 0.00 | 0.00 | 66 | 1016.5 |
| 20260831083349 | 24 | 137 | 1.6 | 3.2 | 0.00 | 0.00 | 0.00 | 65 | 1016.5 |
| 20260831082849 | 24 | 67 | 1.6 | 1.6 | 0.00 | 0.00 | 0.00 | 65 | 1016.4 |
| 20260831082348 | 24 | 118 | 3.2 | 3.2 | 0.00 | 0.00 | 0.00 | 64 | 1016.4 |
| 20260831081849 | 24 | 116 | 3.2 | 3.2 | 0.00 | 0.00 | 0.00 | 64 | 1016.4 |
| 20260831081348 | 24 | 128 | 3.2 | 4.8 | 0.00 | 0.00 | 0.00 | 64 | 1016.3 |
| 20260831080848 | 24 | 116 | 3.2 | 4.8 | 0.00 | 0.00 | 0.00 | 64 | 1016.3 |
| 20260831080348 | 24 | 133 | 3.2 | 3.2 | 0.00 | 0.00 | 0.00 | 63 | 1016.3 |
| 20260831075848 | 24 | 146 | 3.2 | 6.4 | 0.00 | 0.00 | 0.00 | 63 | 1016.2 |
| 20260831075348 | 25 | 138 | 3.2 | 8.0 | 0.00 | 0.00 | 0.00 | 64 | 1016.2 |
| 20260831074848 | 25 | 130 | 1.6 | 3.2 | 0.00 | 0.00 | 0.00 | 63 | 1016.2 |
| 20260831074348 | 25 | 147 | 4.8 | 8.0 | 0.00 | 0.00 | 0.00 | 63 | 1016.1 |
| 20260831073848 | 25 | 164 | 4.8 | 6.4 | 0.00 | 0.00 | 0.00 | 63 | 1016.1 |
| 20260831073348 | 25 | 146 | 4.8 | 8.0 | 0.00 | 0.00 | 0.00 | 63 | 1016.2 |
| 20260831072849 | 25 | 162 | 1.6 | 3.2 | 0.00 | 0.00 | 0.00 | 63 | 1016.2 |
| 20260831072348 | 25 | 174 | 3.2 | 4.8 | 0.00 | 0.00 | 0.00 | 63 | 1016.3 |
| 20260831071849 | 25 | 144 | 4.8 | 6.4 | 0.00 | 0.00 | 0.00 | 62 | 1016.3 |
| 20260831071348 | 25 | 142 | 4.8 | 9.7 | 0.00 | 0.00 | 0.00 | 62 | 1016.3 |
| 20260831070849 | 25 | 142 | 9.7 | 12.9 | 0.00 | 0.00 | 0.00 | 62 | 1016.2 |
| 20260831070350 | 25 | 132 | 6.4 | 8.0 | 0.00 | 0.00 | 0.00 | 62 | 1016.3 |
| 20260831065848 | 25 | 130 | 6.4 | 9.7 | 0.00 | 0.00 | 0.00 | 62 | 1016.3 |
| 20260831065349 | 25 | 132 | 4.8 | 9.7 | 0.00 | 0.00 | 0.00 | 62 | 1016.3 |
| 20260831064849 | 25 | 135 | 4.8 | 9.7 | 0.00 | 0.00 | 0.00 | 62 | 1016.3 |
| 20260831064348 | 25 | 127 | 4.8 | 6.4 | 0.00 | 0.00 | 0.00 | 62 | 1016.4 |